Jewel Of The Seas — C6FW9 — position and weather

sailwx.info

Track history (hours):
 
Tides and Currents Weather Stations Pressure Air Temp Water Temp Dewpoint Dewpoint Depression Visibility Wind Speed Wind Dir Waves Ship Positions

Jewel Of The Seas

Operator: Royal Caribbean Cruises Ltd

Last reported at 2020-Aug-09 04:30 UTC. Time now 2020-Aug-09 05:10 UTC.
Position N 36°29' W 003°55'.

Length 290 m; draft 8.5 m.

Type: Ship. MMSI: 311583000.

Date/timePositionNaut miles runAvg speedWind from/ knotsBaromVisibWave heightAir tempDewpointWater temp
2020-Aug-09 04:30N 36°29' W 003°55'5 2.1
2020-Aug-09 02:00N 36°30' W 003°48'5 1.8 360 / 31018.610.8 24.720.920.7
2020-Aug-08 23:30N 36°29' W 003°54'0 0.0
2020-Aug-08 22:30N 36°29' W 003°54'0 0.2
2020-Aug-08 21:30N 36°29' W 003°54'2 0.6
2020-Aug-08 17:30N 36°27' W 003°55'1 0.4
2020-Aug-08 14:30N 36°27' W 003°53'0 0.2
2020-Aug-08 12:53N 36°27' W 003°53'0 0.1
2020-Aug-08 11:30N 36°26' W 003°53'0 0.1
2020-Aug-08 11:00N 36°26' W 003°53'4389.0
2020-Aug-08 11:00N 36°24' W 003°48'4 3.0 1021.627.0 26.221.522.1
2020-Aug-08 09:30N 36°26' W 003°53'0 0.3
2020-Aug-08 08:34N 36°26' W 003°53'0 0.4
2020-Aug-08 07:35N 36°26' W 003°53'0 0.1
2020-Aug-08 05:01N 36°26' W 003°54'1 1.4
2020-Aug-08 04:01N 36°25' W 003°52'0 0.2
2020-Aug-08 03:29N 36°25' W 003°52'0 0.3
2020-Aug-08 02:44N 36°25' W 003°52'0 0.1
2020-Aug-08 01:01N 36°25' W 003°53'0 0.3
2020-Aug-08 00:00N 36°25' W 003°52'1 0.3
2020-Aug-07 21:42N 36°26' W 003°51'0 0.2
2020-Aug-07 19:28N 36°26' W 003°51'0 0.1
2020-Aug-07 17:30N 36°26' W 003°51'0 0.3
2020-Aug-07 16:28N 36°26' W 003°52'3 0.5
2020-Aug-07 11:00N 36°24' W 003°54'9 1.5 100 / 21021.627.0 26.321.622.5
2020-Aug-07 04:58N 36°28' W 004°04'1 1.1
2020-Aug-07 04:21N 36°28' W 004°03'0 1.0
2020-Aug-07 03:57N 36°28' W 004°02'3 1.0
2020-Aug-07 00:54N 36°28' W 003°58'3 0.9
2020-Aug-06 21:30N 36°29' W 003°55'0 0.0
2020-Aug-06 20:00N 36°29' W 003°55'5 5.1
2020-Aug-06 19:00N 36°24' W 003°54'4 0.8 200 / 41017.610.8 26.919.323.0
2020-Aug-06 13:29N 36°28' W 003°53'4 0.5
2020-Aug-06 05:57N 36°26' W 003°49'0 0.4
2020-Aug-06 05:30N 36°26' W 003°49'1 1.4
2020-Aug-06 04:30N 36°27' W 003°50'2 3.4
2020-Aug-06 04:00N 36°29' W 003°48'0 0.1
2020-Aug-06 02:01N 36°29' W 003°48'0 0.4
2020-Aug-06 01:30N 36°28' W 003°48'1 0.5
2020-Aug-05 22:30N 36°27' W 003°47'1 0.3
2020-Aug-05 20:00N 36°26' W 003°47'2 4.0
2020-Aug-05 19:31N 36°28' W 003°48'2 0.8
2020-Aug-05 17:30N 36°29' W 003°49'  
2020-Aug-03 09:46N 36°24' W 003°23'0 1.8
2020-Aug-03 09:30N 36°23' W 003°24'1 2.3
2020-Aug-03 09:00N 36°23' W 003°25'3 1.6
2020-Aug-03 06:55N 36°21' W 003°28'4 2.6
2020-Aug-03 05:30N 36°24' W 003°31'2 2.4
2020-Aug-03 04:30N 36°26' W 003°33'3 2.5
2020-Aug-03 03:30N 36°28' W 003°35'5 1.4
2020-Aug-03 00:00N 36°28' W 003°41'9 1.2
2020-Aug-02 17:02N 36°23' W 003°50'1 1.6
2020-Aug-02 16:07N 36°22' W 003°52'5 1.9
2020-Aug-02 13:30N 36°18' W 003°54'2 3.7
2020-Aug-02 13:00N 36°17' W 003°57'1 2.1
2020-Aug-02 12:30N 36°17' W 003°58'3 1.4
2020-Aug-02 10:30N 36°18' W 004°01'1 2.2
2020-Aug-02 10:01N 36°19' W 004°02'4 1.2
2020-Aug-02 06:30N 36°22' W 004°05'3 2.1
2020-Aug-02 05:00N 36°25' W 004°05'2 4.8
2020-Aug-02 04:30N 36°27' W 004°03'2 4.3
2020-Aug-02 04:00N 36°28' W 004°01'2 1.6
2020-Aug-02 03:00N 36°29' W 003°59'0 0.3
2020-Aug-02 02:00N 36°29' W 003°59'0 0.5
2020-Aug-02 01:00N 36°28' W 003°60'3 1.2
2020-Aug-01 22:30N 36°26' W 004°03'3 2.0
2020-Aug-01 21:00N 36°24' W 004°00'4 0.7 270 / 71017.627.0 27.121.021.8
2020-Aug-01 16:00N 36°27' W 004°03'1 0.4
2020-Aug-01 14:00N 36°27' W 004°03'2 0.7
2020-Aug-01 11:30N 36°29' W 004°05'1 0.5
2020-Aug-01 09:30N 36°28' W 004°06'2 0.5
2020-Aug-01 05:30N 36°26' W 004°06'1 0.2
2020-Aug-01 03:01N 36°26' W 004°06'0 0.4
2020-Aug-01 02:30N 36°26' W 004°07'1 0.3
2020-Aug-01 00:30N 36°25' W 004°07'0 0.4
2020-Aug-01 00:00N 36°25' W 004°07'2 0.7
2020-Jul-31 21:30N 36°24' W 004°08'1 0.2
2020-Jul-31 18:00N 36°23' W 004°08'0 0.1
2020-Jul-31 15:30N 36°23' W 004°08'  
Track history (hours):
 
Tides and Currents Weather Stations Pressure Air Temp Water Temp Dewpoint Dewpoint Depression Visibility Wind Speed Wind Dir Waves Ship Positions

Jewel Of The Seas

Operator: Royal Caribbean Cruises Ltd

Last reported at 2020-Aug-09 04:30 UTC. Time now 2020-Aug-09 05:10 UTC.
Position N 36°29' W 003°55'.

Length 290 m; draft 8.5 m.

Type: Ship. MMSI: 311583000.

Date/timePositionNaut miles runAvg speedWind from/ knotsBaromVisibWave heightAir tempDewpointWater temp
2020-Aug-09 04:30N 36°29' W 003°55'5 2.1
2020-Aug-09 02:00N 36°30' W 003°48'5 1.8 360 / 31018.610.8 24.720.920.7
2020-Aug-08 23:30N 36°29' W 003°54'0 0.0
2020-Aug-08 22:30N 36°29' W 003°54'0 0.2
2020-Aug-08 21:30N 36°29' W 003°54'2 0.6
2020-Aug-08 17:30N 36°27' W 003°55'1 0.4
2020-Aug-08 14:30N 36°27' W 003°53'0 0.2
2020-Aug-08 12:53N 36°27' W 003°53'0 0.1
2020-Aug-08 11:30N 36°26' W 003°53'0 0.1
2020-Aug-08 11:00N 36°26' W 003°53'4389.0
2020-Aug-08 11:00N 36°24' W 003°48'4 3.0 1021.627.0 26.221.522.1
2020-Aug-08 09:30N 36°26' W 003°53'0 0.3
2020-Aug-08 08:34N 36°26' W 003°53'0 0.4
2020-Aug-08 07:35N 36°26' W 003°53'0 0.1
2020-Aug-08 05:01N 36°26' W 003°54'1 1.4
2020-Aug-08 04:01N 36°25' W 003°52'0 0.2
2020-Aug-08 03:29N 36°25' W 003°52'0 0.3
2020-Aug-08 02:44N 36°25' W 003°52'0 0.1
2020-Aug-08 01:01N 36°25' W 003°53'0 0.3
2020-Aug-08 00:00N 36°25' W 003°52'1 0.3
2020-Aug-07 21:42N 36°26' W 003°51'0 0.2
2020-Aug-07 19:28N 36°26' W 003°51'0 0.1
2020-Aug-07 17:30N 36°26' W 003°51'0 0.3
2020-Aug-07 16:28N 36°26' W 003°52'3 0.5
2020-Aug-07 11:00N 36°24' W 003°54'9 1.5 100 / 21021.627.0 26.321.622.5
2020-Aug-07 04:58N 36°28' W 004°04'1 1.1
2020-Aug-07 04:21N 36°28' W 004°03'0 1.0
2020-Aug-07 03:57N 36°28' W 004°02'3 1.0
2020-Aug-07 00:54N 36°28' W 003°58'3 0.9
2020-Aug-06 21:30N 36°29' W 003°55'0 0.0
2020-Aug-06 20:00N 36°29' W 003°55'5 5.1
2020-Aug-06 19:00N 36°24' W 003°54'4 0.8 200 / 41017.610.8 26.919.323.0
2020-Aug-06 13:29N 36°28' W 003°53'4 0.5
2020-Aug-06 05:57N 36°26' W 003°49'0 0.4
2020-Aug-06 05:30N 36°26' W 003°49'1 1.4
2020-Aug-06 04:30N 36°27' W 003°50'2 3.4
2020-Aug-06 04:00N 36°29' W 003°48'0 0.1
2020-Aug-06 02:01N 36°29' W 003°48'0 0.4
2020-Aug-06 01:30N 36°28' W 003°48'1 0.5
2020-Aug-05 22:30N 36°27' W 003°47'1 0.3
2020-Aug-05 20:00N 36°26' W 003°47'2 4.0
2020-Aug-05 19:31N 36°28' W 003°48'2 0.8
2020-Aug-05 17:30N 36°29' W 003°49'  
2020-Aug-03 09:46N 36°24' W 003°23'0 1.8
2020-Aug-03 09:30N 36°23' W 003°24'1 2.3
2020-Aug-03 09:00N 36°23' W 003°25'3 1.6
2020-Aug-03 06:55N 36°21' W 003°28'4 2.6
2020-Aug-03 05:30N 36°24' W 003°31'2 2.4
2020-Aug-03 04:30N 36°26' W 003°33'3 2.5
2020-Aug-03 03:30N 36°28' W 003°35'5 1.4
2020-Aug-03 00:00N 36°28' W 003°41'9 1.2
2020-Aug-02 17:02N 36°23' W 003°50'1 1.6
2020-Aug-02 16:07N 36°22' W 003°52'5 1.9
2020-Aug-02 13:30N 36°18' W 003°54'2 3.7
2020-Aug-02 13:00N 36°17' W 003°57'1 2.1
2020-Aug-02 12:30N 36°17' W 003°58'3 1.4
2020-Aug-02 10:30N 36°18' W 004°01'1 2.2
2020-Aug-02 10:01N 36°19' W 004°02'4 1.2
2020-Aug-02 06:30N 36°22' W 004°05'3 2.1
2020-Aug-02 05:00N 36°25' W 004°05'2 4.8
2020-Aug-02 04:30N 36°27' W 004°03'2 4.3
2020-Aug-02 04:00N 36°28' W 004°01'2 1.6
2020-Aug-02 03:00N 36°29' W 003°59'0 0.3
2020-Aug-02 02:00N 36°29' W 003°59'0 0.5
2020-Aug-02 01:00N 36°28' W 003°60'3 1.2
2020-Aug-01 22:30N 36°26' W 004°03'3 2.0
2020-Aug-01 21:00N 36°24' W 004°00'4 0.7 270 / 71017.627.0 27.121.021.8
2020-Aug-01 16:00N 36°27' W 004°03'1 0.4
2020-Aug-01 14:00N 36°27' W 004°03'2 0.7
2020-Aug-01 11:30N 36°29' W 004°05'1 0.5
2020-Aug-01 09:30N 36°28' W 004°06'2 0.5
2020-Aug-01 05:30N 36°26' W 004°06'1 0.2
2020-Aug-01 03:01N 36°26' W 004°06'0 0.4
2020-Aug-01 02:30N 36°26' W 004°07'1 0.3
2020-Aug-01 00:30N 36°25' W 004°07'0 0.4
2020-Aug-01 00:00N 36°25' W 004°07'2 0.7
2020-Jul-31 21:30N 36°24' W 004°08'1 0.2
2020-Jul-31 18:00N 36°23' W 004°08'0 0.1
2020-Jul-31 15:30N 36°23' W 004°08'  

Dump ship's entire track history